Terminal Aerodrome Forecast
Issued by NWS Boston, MA

Home | Current Version | Previous Version | Text Only | Print | Product List | Glossary On
Versions: 1 2 3 4 5 6 7 8 9 10 11 12 13 14 15 16 17 18 19 20 21 22 23 24 25 26 27 28 29 30 31 32 33 34 35 36 37 38
741
FTUS41 KBOX 242149 AAA
TAFORH
TAF AMD
KORH 242149Z 2422/2518 02014G28KT 2SM -FZRA BR OVC002
     FM250300 35013KT 3SM -FZRA BR OVC005
     FM250500 33013KT 3SM -FZRA BR OVC020
     FM250700 32013KT 3SM BR VCSH OVC020
     FM250900 31012KT P6SM VCSH OVC020
     FM251100 31011KT P6SM BKN050=

USA.gov is the U.S. government's official web portal to all federal, state and local government web resources and services.